Time;durP1;ratioP1;P1;durP2;ratioP2;P2;SDS_P1;SDS_P2;PMS_P1;PMS_P2;Temp;Humidity;BMP_temperature;BMP_pressure;BME280_temperature;BME280_humidity;BME280_pressure;Samples;Min_cycle;Max_cycle;Signal;HPM_P1;HPM_P2
2023/12/11 00:01:43;;;;;;;2.30;0.73;;;8.40;99.90;;;;;;4907949;29;20390;-67
2023/12/11 00:04:13;;;;;;;3.83;0.60;;;8.40;99.90;;;;;;4910616;29;20382;-67
2023/12/11 00:06:40;;;;;;;3.13;0.80;;;8.40;99.90;;;;;;4913988;29;20095;-67
2023/12/11 00:09:13;;;;;;;2.75;1.33;;;8.40;99.90;;;;;;4911567;29;20039;-67
2023/12/11 00:11:40;;;;;;;1.73;1.00;;;8.40;99.90;;;;;;4913167;29;20048;-67
2023/12/11 00:14:07;;;;;;;1.63;0.60;;;8.40;99.90;;;;;;4912127;29;20048;-67
2023/12/11 00:16:40;;;;;;;4.80;1.05;;;8.40;99.90;;;;;;4913929;29;20545;-67
2023/12/11 00:19:12;;;;;;;4.28;0.80;;;8.40;99.90;;;;;;4914296;29;20054;-67
2023/12/11 00:21:44;;;;;;;3.15;0.80;;;8.50;99.90;;;;;;4910549;29;20107;-67
2023/12/11 00:24:11;;;;;;;2.28;0.82;;;8.50;99.90;;;;;;4920895;29;20567;-67
2023/12/11 00:26:43;;;;;;;2.15;0.80;;;8.40;99.90;;;;;;4921943;29;20494;-67
2023/12/11 00:29:11;;;;;;;3.28;0.70;;;8.40;99.90;;;;;;4910840;29;20529;-66
2023/12/11 00:31:42;;;;;;;5.35;1.17;;;8.40;99.90;;;;;;4908746;29;20056;-67
2023/12/11 00:34:14;;;;;;;3.42;0.80;;;8.40;99.90;;;;;;4908614;29;20151;-67
2023/12/11 00:36:47;;;;;;;5.25;2.03;;;8.40;99.90;;;;;;4901153;29;20054;-67
2023/12/11 00:39:19;;;;;;;3.40;0.70;;;8.40;99.90;;;;;;4910038;29;20525;-67
2023/12/11 00:41:52;;;;;;;3.58;0.80;;;8.40;99.90;;;;;;4911686;29;20063;-67
2023/12/11 00:44:23;;;;;;;4.15;0.73;;;8.40;99.90;;;;;;4897864;29;20040;-67
2023/12/11 00:46:50;;;;;;;4.43;1.08;;;8.40;99.90;;;;;;4910694;29;20135;-67
2023/12/11 00:49:17;;;;;;;2.13;1.27;;;8.50;99.90;;;;;;4912856;29;20131;-67
2023/12/11 00:51:52;;;;;;;4.25;0.80;;;8.40;99.90;;;;;;4909926;29;20119;-67
2023/12/11 00:54:24;;;;;;;5.00;0.73;;;8.40;99.90;;;;;;4908093;29;20064;-66
2023/12/11 00:56:56;;;;;;;2.33;0.85;;;8.40;99.90;;;;;;4913307;29;20096;-67
2023/12/11 00:59:28;;;;;;;1.05;0.60;;;8.30;99.90;;;;;;4909481;29;20071;-66
2023/12/11 01:02:00;;;;;;;8.02;1.70;;;8.10;99.90;;;;;;4911268;29;20028;-67
2023/12/11 01:04:32;;;;;;;2.20;0.82;;;7.90;99.90;;;;;;4907122;29;20036;-66
2023/12/11 01:07:04;;;;;;;3.88;0.90;;;7.80;99.90;;;;;;4912212;29;20114;-66
2023/12/11 01:09:36;;;;;;;3.10;0.77;;;7.70;99.90;;;;;;4911714;29;20056;-66
2023/12/11 01:12:09;;;;;;;3.63;0.93;;;7.70;99.90;;;;;;4909940;29;20140;-66
2023/12/11 01:14:40;;;;;;;3.42;0.80;;;7.60;99.90;;;;;;4916285;29;20048;-66
2023/12/11 01:17:12;;;;;;;1.83;0.60;;;7.50;99.90;;;;;;4915006;29;20057;-66
2023/12/11 01:19:44;;;;;;;2.55;0.80;;;7.60;99.90;;;;;;4916319;29;20058;-66
2023/12/11 01:22:11;;;;;;;2.95;0.77;;;7.60;99.90;;;;;;4914852;29;20461;-66
2023/12/11 01:24:43;;;;;;;2.13;0.68;;;7.60;99.90;;;;;;4911096;29;20122;-66
2023/12/11 01:27:15;;;;;;;2.83;0.70;;;7.60;99.90;;;;;;4911134;29;20056;-66
2023/12/11 01:29:47;;;;;;;3.13;0.70;;;7.60;99.90;;;;;;4915886;29;20043;-66
2023/12/11 01:32:14;;;;;;;5.18;1.25;;;7.60;99.90;;;;;;4915419;29;20071;-66
2023/12/11 01:34:46;;;;;;;4.60;0.90;;;7.50;99.90;;;;;;4912331;29;20040;-66
2023/12/11 01:37:13;;;;;;;4.88;1.13;;;7.40;99.90;;;;;;4916740;29;20413;-66
2023/12/11 01:39:45;;;;;;;2.65;0.90;;;7.40;99.90;;;;;;4913661;29;20052;-66
2023/12/11 01:42:17;;;;;;;2.47;0.77;;;7.40;99.90;;;;;;4913205;29;20044;-66
2023/12/11 01:44:49;;;;;;;1.90;1.00;;;7.40;99.90;;;;;;4915247;29;20084;-66
2023/12/11 01:47:21;;;;;;;2.38;1.00;;;7.50;99.90;;;;;;4910956;29;20048;-66
2023/12/11 01:49:52;;;;;;;4.70;0.80;;;7.40;99.90;;;;;;4914145;29;20044;-66
2023/12/11 01:52:25;;;;;;;3.92;0.80;;;7.40;99.90;;;;;;4911251;29;20436;-66
2023/12/11 01:54:57;;;;;;;5.30;0.90;;;7.40;99.90;;;;;;4914219;29;20159;-66
2023/12/11 01:57:30;;;;;;;3.45;0.60;;;7.40;99.90;;;;;;4908201;29;20052;-66
2023/12/11 02:00:04;;;;;;;3.70;0.97;;;7.30;99.90;;;;;;4912094;29;20123;-66
2023/12/11 02:02:36;;;;;;;4.28;1.73;;;7.30;99.90;;;;;;4913910;29;20123;-66
2023/12/11 02:05:08;;;;;;;3.88;0.80;;;7.30;99.90;;;;;;4914700;29;20051;-66
2023/12/11 02:07:35;;;;;;;4.90;1.08;;;7.30;99.90;;;;;;4915236;29;20155;-66
2023/12/11 02:10:02;;;;;;;4.45;1.15;;;7.30;99.90;;;;;;4914797;29;20095;-66
2023/12/11 02:12:34;;;;;;;3.85;0.75;;;7.40;99.90;;;;;;4912126;29;20416;-66
2023/12/11 02:15:06;;;;;;;2.63;0.80;;;7.40;99.90;;;;;;4914999;29;20066;-66
2023/12/11 02:17:33;;;;;;;3.55;0.90;;;7.40;99.90;;;;;;4914913;29;20082;-66
2023/12/11 02:20:06;;;;;;;3.33;0.95;;;7.40;99.90;;;;;;4910061;29;20465;-66
2023/12/11 02:22:38;;;;;;;3.22;0.63;;;7.30;99.90;;;;;;4913406;29;20044;-66
2023/12/11 02:25:10;;;;;;;2.13;0.88;;;7.30;99.90;;;;;;4911944;29;20505;-66
2023/12/11 02:27:43;;;;;;;3.07;0.70;;;7.30;99.90;;;;;;4912043;29;20507;-66
2023/12/11 02:30:15;;;;;;;4.00;1.05;;;7.20;99.90;;;;;;4911793;29;20033;-66
2023/12/11 02:32:41;;;;;;;3.13;0.90;;;7.20;99.90;;;;;;4911933;29;20123;-66
2023/12/11 02:35:14;;;;;;;3.90;1.00;;;7.20;99.90;;;;;;4909810;29;20626;-66
2023/12/11 02:37:46;;;;;;;4.25;1.50;;;7.30;99.90;;;;;;4912322;29;20058;-66
2023/12/11 02:40:18;;;;;;;2.67;1.00;;;7.30;99.90;;;;;;4911080;29;20420;-66
2023/12/11 02:42:50;;;;;;;2.53;0.95;;;7.30;99.90;;;;;;4912969;29;20613;-66
2023/12/11 02:45:22;;;;;;;2.35;1.30;;;7.40;99.90;;;;;;4909396;29;20048;-66
2023/12/11 02:48:02;;;;;;;2.25;0.73;;;7.40;99.90;;;;;;4913588;29;20453;-66
2023/12/11 02:50:34;;;;;;;3.65;0.85;;;7.40;99.90;;;;;;4911332;29;20119;-66
2023/12/11 02:53:06;;;;;;;6.82;1.10;;;7.40;99.90;;;;;;4911858;29;20076;-66
2023/12/11 02:55:32;;;;;;;3.78;1.63;;;7.40;99.90;;;;;;4917688;29;20039;-66
2023/12/11 02:58:05;;;;;;;5.50;0.93;;;7.40;99.90;;;;;;4914160;29;20126;-66
2023/12/11 03:00:36;;;;;;;2.65;0.95;;;7.40;99.90;;;;;;4910215;29;20040;-66
2023/12/11 03:03:09;;;;;;;4.70;0.90;;;7.40;99.90;;;;;;4912883;29;20040;-66
2023/12/11 03:05:36;;;;;;;1.58;0.65;;;7.40;99.90;;;;;;4908936;29;20493;-66
2023/12/11 03:08:08;;;;;;;1.00;0.68;;;7.40;99.90;;;;;;4909041;29;20050;-66
2023/12/11 03:10:40;;;;;;;1.73;0.70;;;7.40;99.90;;;;;;4906226;29;20044;-66
2023/12/11 03:13:12;;;;;;;3.13;0.80;;;7.40;99.90;;;;;;4912138;29;20517;-66
2023/12/11 03:15:44;;;;;;;2.65;1.10;;;7.40;99.90;;;;;;4910127;29;20051;-66
2023/12/11 03:18:16;;;;;;;3.55;1.23;;;7.40;99.90;;;;;;4913671;29;20417;-66
2023/12/11 03:20:43;;;;;;;0.90;0.60;;;7.40;99.90;;;;;;4908998;29;20479;-66
2023/12/11 03:23:15;;;;;;;2.50;0.70;;;7.40;99.90;;;;;;4907116;29;20048;-66
2023/12/11 03:25:41;;;;;;;2.50;0.80;;;7.40;99.90;;;;;;4914429;29;20044;-66
2023/12/11 03:28:13;;;;;;;1.88;0.60;;;7.40;99.90;;;;;;4913726;29;20044;-66
2023/12/11 03:30:45;;;;;;;3.30;0.70;;;7.40;99.90;;;;;;4911767;29;20042;-66
2023/12/11 03:33:17;;;;;;;1.65;0.70;;;7.40;99.90;;;;;;4894481;29;20052;-66
2023/12/11 03:35:49;;;;;;;2.03;0.73;;;7.40;99.90;;;;;;4910340;29;20051;-66
2023/12/11 03:38:21;;;;;;;1.08;0.60;;;7.40;99.90;;;;;;4894037;29;20041;-66
2023/12/11 03:40:53;;;;;;;0.75;0.50;;;7.40;99.90;;;;;;4912587;29;20041;-66
2023/12/11 03:43:25;;;;;;;1.77;0.73;;;7.40;99.90;;;;;;4910566;29;20529;-66
2023/12/11 03:45:57;;;;;;;0.60;0.40;;;7.40;99.90;;;;;;4898484;29;20040;-66
2023/12/11 03:48:30;;;;;;;1.60;0.40;;;7.40;99.90;;;;;;4912859;29;20047;-65
2023/12/11 03:50:57;;;;;;;1.48;0.60;;;7.40;99.90;;;;;;4910099;29;20036;-66
2023/12/11 03:53:29;;;;;;;0.98;0.63;;;7.40;99.90;;;;;;4906311;29;20127;-65
2023/12/11 03:56:01;;;;;;;1.38;0.55;;;7.40;99.90;;;;;;4909975;29;20040;-66
2023/12/11 03:58:32;;;;;;;0.90;0.60;;;7.40;99.90;;;;;;4910821;29;20054;-66
2023/12/11 04:01:04;;;;;;;1.85;0.65;;;7.50;99.90;;;;;;4910561;29;20056;-66
2023/12/11 04:03:36;;;;;;;3.25;0.98;;;7.50;99.90;;;;;;4908217;29;20040;-66
2023/12/11 04:06:08;;;;;;;2.10;0.95;;;7.60;99.90;;;;;;4911184;29;20048;-66
2023/12/11 04:08:41;;;;;;;1.23;1.10;;;7.60;99.90;;;;;;4908343;29;20040;-66
2023/12/11 04:11:13;;;;;;;4.27;1.40;;;7.60;99.90;;;;;;4910666;29;20048;-66
2023/12/11 04:13:45;;;;;;;1.90;1.25;;;7.60;99.90;;;;;;4911502;29;20307;-66
2023/12/11 04:16:12;;;;;;;2.60;1.40;;;7.70;99.90;;;;;;4909458;29;20132;-66
2023/12/11 04:18:44;;;;;;;3.38;1.45;;;7.70;99.90;;;;;;4913540;29;20040;-66
2023/12/11 04:21:16;;;;;;;2.95;1.70;;;7.70;99.90;;;;;;4913517;29;20047;-66
2023/12/11 04:23:48;;;;;;;3.63;1.52;;;7.70;99.90;;;;;;4911659;29;20046;-66
2023/12/11 04:26:20;;;;;;;6.40;2.00;;;7.70;99.90;;;;;;4911915;29;20521;-66
2023/12/11 04:28:52;;;;;;;3.05;1.70;;;7.60;99.90;;;;;;4907833;29;20103;-65
2023/12/11 04:31:21;;;;;;;3.38;1.58;;;7.60;99.90;;;;;;4912590;29;20048;-66
2023/12/11 04:33:53;;;;;;;6.63;2.10;;;7.70;99.90;;;;;;4908478;29;20501;-66
2023/12/11 04:36:25;;;;;;;2.33;1.92;;;7.70;99.90;;;;;;4913244;29;20075;-66
2023/12/11 04:38:52;;;;;;;2.30;2.10;;;7.70;99.90;;;;;;4912320;29;20127;-65
2023/12/11 04:41:23;;;;;;;3.45;1.98;;;7.70;99.90;;;;;;4898156;29;20077;-66
2023/12/11 04:43:50;;;;;;;2.90;2.03;;;7.80;99.90;;;;;;4913973;29;20055;-66
2023/12/11 04:46:22;;;;;;;3.13;1.80;;;7.80;99.90;;;;;;4897702;29;20051;-66
2023/12/11 04:48:54;;;;;;;2.95;1.90;;;7.70;99.90;;;;;;4913355;29;20040;-67
2023/12/11 04:51:26;;;;;;;3.67;2.65;;;7.70;99.90;;;;;;4915527;29;20052;-66
2023/12/11 04:53:58;;;;;;;2.30;1.65;;;7.70;99.90;;;;;;4913817;29;20044;-67
2023/12/11 04:56:30;;;;;;;2.65;1.88;;;7.70;99.90;;;;;;4916237;29;20402;-66
2023/12/11 04:58:57;;;;;;;1.85;1.63;;;7.70;99.90;;;;;;4914543;29;20578;-66
2023/12/11 05:01:29;;;;;;;2.22;1.58;;;7.70;99.90;;;;;;4910459;29;20051;-66
2023/12/11 05:03:56;;;;;;;2.95;1.80;;;7.70;99.90;;;;;;4914322;29;20050;-67
2023/12/11 05:06:28;;;;;;;2.97;1.60;;;7.70;99.90;;;;;;4917522;29;20048;-68
2023/12/11 05:09:00;;;;;;;2.03;1.65;;;7.70;99.90;;;;;;4923328;29;20068;-66
2023/12/11 05:11:27;;;;;;;1.98;1.60;;;7.70;99.90;;;;;;4912218;29;20044;-66
2023/12/11 05:13:59;;;;;;;2.78;1.52;;;7.80;99.90;;;;;;4916067;29;20046;-65
2023/12/11 05:16:31;;;;;;;1.52;1.27;;;7.80;99.90;;;;;;4914171;29;20048;-66
2023/12/11 05:19:02;;;;;;;5.00;1.60;;;7.80;99.90;;;;;;4926452;29;20131;-66
2023/12/11 05:21:34;;;;;;;2.05;1.67;;;7.70;99.90;;;;;;4913909;29;20413;-66
2023/12/11 05:24:06;;;;;;;2.15;1.40;;;7.70;99.90;;;;;;4910846;29;20055;-66
2023/12/11 05:26:33;;;;;;;4.10;2.25;;;7.70;99.90;;;;;;4913825;29;20048;-65
2023/12/11 05:29:00;;;;;;;2.03;1.48;;;7.70;99.90;;;;;;4912375;29;20131;-66
2023/12/11 05:31:27;;;;;;;3.80;1.83;;;7.70;99.90;;;;;;4915387;29;20131;-66
2023/12/11 05:33:59;;;;;;;1.60;1.33;;;7.80;99.90;;;;;;4914701;29;20036;-66
2023/12/11 05:36:33;;;;;;;1.90;1.00;;;7.80;99.90;;;;;;4901188;29;20048;-66
2023/12/11 05:39:00;;;;;;;2.83;1.33;;;7.80;99.90;;;;;;4914548;29;20119;-66
2023/12/11 05:41:32;;;;;;;2.38;1.30;;;7.80;99.90;;;;;;4911705;29;20046;-66
2023/12/11 05:44:04;;;;;;;2.58;1.48;;;7.80;99.90;;;;;;4925380;29;20540;-65
2023/12/11 05:46:36;;;;;;;1.58;1.10;;;7.90;99.90;;;;;;4908336;29;20111;-66
2023/12/11 05:49:08;;;;;;;1.70;1.08;;;7.90;99.90;;;;;;4910287;29;20032;-66
2023/12/11 05:51:40;;;;;;;1.30;0.90;;;7.90;99.90;;;;;;4937836;29;20071;-66
2023/12/11 05:54:12;;;;;;;1.40;1.00;;;7.90;99.90;;;;;;4907565;29;20687;-66
2023/12/11 05:56:44;;;;;;;1.45;1.10;;;7.90;99.90;;;;;;4910927;29;20062;-66
2023/12/11 05:59:17;;;;;;;1.73;1.00;;;8.00;99.90;;;;;;4914529;29;20044;-66
2023/12/11 06:01:49;;;;;;;1.35;0.90;;;8.00;99.90;;;;;;4911689;29;20104;-66
2023/12/11 06:04:16;;;;;;;1.00;0.90;;;8.00;99.90;;;;;;4913421;29;20044;-66
2023/12/11 06:06:42;;;;;;;1.10;0.90;;;8.00;99.90;;;;;;4912927;29;20051;-66
2023/12/11 06:09:15;;;;;;;3.35;0.82;;;8.00;99.90;;;;;;4912184;29;20119;-66
2023/12/11 06:11:46;;;;;;;1.33;0.90;;;8.10;99.90;;;;;;4909308;29;20048;-66
2023/12/11 06:14:18;;;;;;;1.85;0.95;;;8.10;99.90;;;;;;4911954;29;20058;-66
2023/12/11 06:16:50;;;;;;;1.90;0.90;;;8.10;99.90;;;;;;4921428;29;20047;-66
2023/12/11 06:19:22;;;;;;;1.50;1.08;;;8.10;99.90;;;;;;4912028;29;20398;-66
2023/12/11 06:21:54;;;;;;;1.35;1.00;;;8.00;99.90;;;;;;4911781;29;20036;-66
2023/12/11 06:24:26;;;;;;;1.88;0.82;;;8.00;99.90;;;;;;4913847;29;20040;-66
2023/12/11 06:26:58;;;;;;;2.78;0.98;;;8.10;99.90;;;;;;4913141;29;20166;-66
2023/12/11 06:29:24;;;;;;;1.17;0.90;;;8.10;99.90;;;;;;4919168;29;20045;-66
2023/12/11 06:31:56;;;;;;;1.38;0.90;;;8.00;99.90;;;;;;4912367;29;20045;-66
2023/12/11 06:34:30;;;;;;;1.00;0.70;;;8.00;99.90;;;;;;4913440;29;20052;-66
2023/12/11 06:36:56;;;;;;;1.58;0.82;;;8.10;99.90;;;;;;4911054;29;20508;-66
2023/12/11 06:39:28;;;;;;;1.20;0.90;;;8.10;99.90;;;;;;4928264;29;20529;-66
2023/12/11 06:42:01;;;;;;;1.85;0.80;;;8.20;99.90;;;;;;4895832;29;20783;-66
2023/12/11 06:44:32;;;;;;;3.05;0.80;;;8.20;99.90;;;;;;4924507;29;20044;-66
2023/12/11 06:46:59;;;;;;;1.38;1.00;;;8.20;99.90;;;;;;4907603;29;20032;-66
2023/12/11 06:49:26;;;;;;;0.85;0.60;;;8.20;99.90;;;;;;4912018;29;20063;-66
2023/12/11 06:51:58;;;;;;;1.75;0.88;;;8.20;99.90;;;;;;4913248;29;20413;-66
2023/12/11 06:54:30;;;;;;;1.25;0.80;;;8.30;99.90;;;;;;4912171;29;20119;-66
2023/12/11 06:56:57;;;;;;;2.30;0.70;;;8.30;99.90;;;;;;4927979;29;20079;-66
2023/12/11 06:59:24;;;;;;;1.10;0.57;;;8.30;99.90;;;;;;4912500;29;20139;-66
2023/12/11 07:01:56;;;;;;;1.25;0.60;;;8.30;99.90;;;;;;4911647;29;20108;-66
2023/12/11 07:04:27;;;;;;;2.55;0.65;;;8.30;99.90;;;;;;4914211;29;20056;-66
2023/12/11 07:06:55;;;;;;;0.93;0.70;;;8.40;99.90;;;;;;4909394;29;20043;-66
2023/12/11 07:09:29;;;;;;;1.63;0.73;;;8.40;99.90;;;;;;4914795;29;20087;-66
2023/12/11 07:11:56;;;;;;;1.40;0.63;;;8.40;99.90;;;;;;4911976;29;20127;-66
2023/12/11 07:14:28;;;;;;;1.25;0.75;;;8.50;99.90;;;;;;4910676;29;20032;-66
2023/12/11 07:17:00;;;;;;;2.45;0.70;;;8.50;99.90;;;;;;4913419;29;20064;-66
2023/12/11 07:19:32;;;;;;;0.88;0.52;;;8.50;99.90;;;;;;4914202;29;20044;-66
2023/12/11 07:22:04;;;;;;;2.28;0.80;;;8.50;99.90;;;;;;4909110;29;20099;-66
2023/12/11 07:24:36;;;;;;;1.25;0.68;;;8.50;99.90;;;;;;4911020;29;20042;-66
2023/12/11 07:27:03;;;;;;;1.30;0.70;;;8.50;99.90;;;;;;4912245;29;20123;-66
2023/12/11 07:29:30;;;;;;;1.63;0.70;;;8.60;99.90;;;;;;4923809;29;20361;-66
2023/12/11 07:32:02;;;;;;;0.68;0.50;;;8.60;99.90;;;;;;4910632;29;20500;-67
2023/12/11 07:34:34;;;;;;;0.98;0.50;;;8.60;99.90;;;;;;4912524;29;20044;-66
2023/12/11 07:37:06;;;;;;;3.10;0.70;;;8.50;99.90;;;;;;4909861;29;20557;-66
2023/12/11 07:39:32;;;;;;;1.38;0.65;;;8.50;99.90;;;;;;4909543;29;20101;-66
2023/12/11 07:41:59;;;;;;;1.42;0.70;;;8.50;99.90;;;;;;4913711;29;20040;-67
2023/12/11 07:44:31;;;;;;;0.90;0.70;;;8.50;99.90;;;;;;4912322;29;20047;-66
2023/12/11 07:47:03;;;;;;;0.95;0.68;;;8.60;99.90;;;;;;4895472;29;20052;-67
2023/12/11 07:49:37;;;;;;;0.70;0.68;;;8.60;99.90;;;;;;4908857;29;20128;-67
2023/12/11 07:52:09;;;;;;;1.77;1.13;;;8.60;99.90;;;;;;4909734;29;20047;-66
2023/12/11 07:54:36;;;;;;;1.25;0.80;;;8.70;99.90;;;;;;4921372;29;20079;-66
2023/12/11 07:57:08;;;;;;;1.40;0.80;;;8.70;99.90;;;;;;4893199;29;20056;-66
2023/12/11 07:59:40;;;;;;;1.23;1.00;;;8.70;99.90;;;;;;4912312;29;20048;-66
2023/12/11 08:02:12;;;;;;;1.25;0.80;;;8.70;99.90;;;;;;4914620;29;20453;-66
2023/12/11 08:04:44;;;;;;;1.30;1.10;;;8.80;99.90;;;;;;4912009;29;20047;-66
2023/12/11 08:07:16;;;;;;;3.60;3.15;;;8.80;99.90;;;;;;4918975;29;20593;-66
2023/12/11 08:09:48;;;;;;;1.52;0.90;;;8.80;99.90;;;;;;4911610;29;20031;-66
2023/12/11 08:12:20;;;;;;;1.73;1.02;;;8.80;99.90;;;;;;4925436;29;20048;-66
2023/12/11 08:14:52;;;;;;;0.98;0.60;;;8.80;99.90;;;;;;4909381;29;20048;-66
2023/12/11 08:17:24;;;;;;;0.82;0.50;;;8.90;99.90;;;;;;4909048;29;20077;-66
2023/12/11 08:19:56;;;;;;;0.90;0.68;;;8.90;99.90;;;;;;4907260;29;20050;-66
2023/12/11 08:22:28;;;;;;;1.42;0.80;;;8.90;99.90;;;;;;4910765;29;20047;-66
2023/12/11 08:24:55;;;;;;;1.58;0.60;;;9.00;99.90;;;;;;4909104;29;20051;-66
2023/12/11 08:27:27;;;;;;;0.82;0.77;;;9.00;99.90;;;;;;4910174;29;20513;-66
2023/12/11 08:29:59;;;;;;;1.15;0.60;;;9.00;99.90;;;;;;4894340;29;20071;-66
2023/12/11 08:32:26;;;;;;;0.70;0.40;;;9.00;99.90;;;;;;4908916;29;20048;-66
2023/12/11 08:35:03;;;;;;;0.65;0.50;;;9.00;99.90;;;;;;4908443;29;20047;-66
2023/12/11 08:37:35;;;;;;;0.93;0.60;;;8.90;99.90;;;;;;4910501;29;20066;-67
2023/12/11 08:40:08;;;;;;;1.15;0.80;;;8.90;99.90;;;;;;4912222;29;20043;-66
2023/12/11 08:42:40;;;;;;;0.82;0.60;;;8.90;99.90;;;;;;4911944;29;20048;-68
2023/12/11 08:45:12;;;;;;;0.95;0.63;;;8.90;99.90;;;;;;4911069;29;20043;-66
2023/12/11 08:47:44;;;;;;;0.93;0.57;;;9.00;99.90;;;;;;4905584;29;20048;-66
2023/12/11 08:50:11;;;;;;;0.55;0.50;;;9.00;99.90;;;;;;4923985;29;20416;-66
2023/12/11 08:52:44;;;;;;;0.80;0.70;;;9.00;99.90;;;;;;4908472;29;20055;-67
2023/12/11 08:55:10;;;;;;;1.05;0.43;;;9.00;99.90;;;;;;4922392;29;20050;-66
2023/12/11 08:57:44;;;;;;;0.52;0.43;;;9.00;99.90;;;;;;4909443;29;20044;-66
2023/12/11 09:00:16;;;;;;;;;;;9.10;99.90;;;;;;4913282;29;20048;-66
2023/12/11 09:02:48;;;;;;;1.92;0.60;;;9.10;99.90;;;;;;4909354;29;20022;-66
2023/12/11 09:05:20;;;;;;;0.55;0.40;;;9.00;99.90;;;;;;4911308;29;20040;-66
2023/12/11 09:07:47;;;;;;;0.60;0.40;;;9.00;99.90;;;;;;4911103;29;20585;-66
2023/12/11 09:10:19;;;;;;;2.30;0.60;;;9.00;99.90;;;;;;4911384;29;20713;-66
2023/12/11 09:12:53;;;;;;;2.45;0.50;;;8.90;99.90;;;;;;4909967;29;20044;-67
2023/12/11 09:15:25;;;;;;;1.13;0.60;;;8.90;99.90;;;;;;4909325;29;20044;-66
2023/12/11 09:17:57;;;;;;;0.40;0.28;;;8.90;99.90;;;;;;4907166;29;20138;-66
2023/12/11 09:20:29;;;;;;;0.65;0.60;;;8.80;99.90;;;;;;4933879;29;20055;-66
2023/12/11 09:23:01;;;;;;;0.88;0.70;;;8.80;99.90;;;;;;4908478;29;20088;-66
2023/12/11 09:25:33;;;;;;;0.82;0.50;;;8.80;99.90;;;;;;4909194;29;20047;-65
2023/12/11 09:28:05;;;;;;;0.80;0.40;;;8.80;99.90;;;;;;4909581;29;20228;-66
2023/12/11 09:30:32;;;;;;;0.50;0.40;;;8.80;99.90;;;;;;4911079;29;20044;-67
2023/12/11 09:32:59;;;;;;;1.67;0.65;;;8.90;99.90;;;;;;4909835;29;20630;-67
2023/12/11 09:35:26;;;;;;;0.95;0.50;;;9.00;99.90;;;;;;4919244;29;20049;-67
2023/12/11 09:37:57;;;;;;;1.00;0.50;;;9.00;99.90;;;;;;4914079;29;20512;-67
2023/12/11 09:40:29;;;;;;;1.02;0.55;;;9.10;99.90;;;;;;4915673;29;20050;-67
2023/12/11 09:43:02;;;;;;;1.55;0.32;;;9.10;99.90;;;;;;4900018;29;20045;-66
2023/12/11 09:45:34;;;;;;;1.00;0.50;;;9.10;99.90;;;;;;4912102;29;20111;-66
2023/12/11 09:48:06;;;;;;;0.82;0.43;;;9.20;99.90;;;;;;4911100;29;20040;-67
2023/12/11 09:50:37;;;;;;;0.98;0.50;;;9.20;99.90;;;;;;4897816;29;20390;-67
2023/12/11 09:53:09;;;;;;;0.95;0.40;;;9.20;99.90;;;;;;4914660;29;20052;-66
2023/12/11 09:55:41;;;;;;;2.00;0.60;;;9.30;99.90;;;;;;4914394;29;20126;-66
2023/12/11 09:58:13;;;;;;;0.45;0.40;;;9.30;99.90;;;;;;4915534;29;20127;-66
2023/12/11 10:00:42;;;;;;;0.68;0.50;;;9.40;99.90;;;;;;4914096;29;20044;-66
2023/12/11 10:03:15;;;;;;;2.67;0.50;;;9.40;99.90;;;;;;4914560;29;20058;-67
2023/12/11 10:05:42;;;;;;;0.35;0.30;;;9.50;99.90;;;;;;4911866;29;20063;-67
2023/12/11 10:08:17;;;;;;;1.45;0.40;;;9.60;99.90;;;;;;4912553;29;20046;-66
2023/12/11 10:10:57;;;;;;;0.63;0.30;;;9.60;99.90;;;;;;4910987;29;20076;-66
2023/12/11 10:13:24;;;;;;;0.85;0.43;;;9.70;99.90;;;;;;4912371;29;20110;-67
2023/12/11 10:15:56;;;;;;;0.60;0.32;;;9.80;99.90;;;;;;4915295;29;20076;-67
2023/12/11 10:18:28;;;;;;;0.50;0.30;;;9.90;99.90;;;;;;4910607;29;20040;-67
2023/12/11 10:20:57;;;;;;;0.47;0.30;;;9.90;99.90;;;;;;4913830;29;20064;-67
2023/12/11 10:23:29;;;;;;;1.02;0.43;;;9.90;99.90;;;;;;4940443;29;20865;-67
2023/12/11 10:26:05;;;;;;;0.90;0.30;;;9.90;99.90;;;;;;4913415;29;20044;-67
2023/12/11 10:28:38;;;;;;;0.55;0.38;;;9.90;99.90;;;;;;4911716;29;20497;-67
2023/12/11 10:31:10;;;;;;;0.80;0.30;;;9.90;99.90;;;;;;4912674;29;20527;-67
2023/12/11 10:33:49;;;;;;;0.40;0.30;;;9.90;99.90;;;;;;4906920;29;20429;-67
2023/12/11 10:36:16;;;;;;;2.22;0.35;;;9.90;99.90;;;;;;4927386;29;20052;-68
2023/12/11 10:38:50;;;;;;;0.57;0.40;;;9.90;99.90;;;;;;4910506;29;20505;-67
2023/12/11 10:41:26;;;;;;;0.52;0.40;;;10.00;99.90;;;;;;4912288;29;20564;-67
2023/12/11 10:43:58;;;;;;;0.75;0.40;;;10.00;99.90;;;;;;4914046;29;20215;-67
2023/12/11 10:46:31;;;;;;;0.57;0.43;;;10.00;99.90;;;;;;4912680;29;20469;-67
2023/12/11 10:49:00;;;;;;;1.00;0.55;;;10.00;99.90;;;;;;4923434;29;20032;-67
2023/12/11 10:51:28;;;;;;;0.65;0.40;;;10.10;99.90;;;;;;4912437;29;20099;-67
2023/12/11 10:54:00;;;;;;;0.40;0.40;;;10.10;99.90;;;;;;4898092;29;20044;-67
2023/12/11 10:56:33;;;;;;;1.65;0.50;;;10.10;99.90;;;;;;4908493;29;20046;-67
2023/12/11 10:59:06;;;;;;;2.17;0.63;;;10.10;99.90;;;;;;4911099;29;20055;-67
2023/12/11 11:01:34;;;;;;;1.27;0.60;;;10.20;99.90;;;;;;4910063;29;20056;-67
2023/12/11 11:04:09;;;;;;;0.40;0.40;;;10.10;99.90;;;;;;4912590;29;20055;-67
2023/12/11 11:06:46;;;;;;;0.60;0.47;;;10.10;99.90;;;;;;4912402;29;20050;-67
2023/12/11 11:09:33;;;;;;;1.45;0.40;;;10.10;99.90;;;;;;4913115;29;20036;-67
2023/12/11 11:12:14;;;;;;;0.90;0.40;;;10.20;99.90;;;;;;4912357;29;20036;-67
2023/12/11 11:14:48;;;;;;;0.70;0.50;;;10.10;99.90;;;;;;4913593;29;20612;-67
2023/12/11 11:17:16;;;;;;;0.88;0.57;;;10.20;99.90;;;;;;4909044;29;20044;-67
2023/12/11 11:20:12;;;;;;;0.45;0.40;;;10.20;99.90;;;;;;4912852;29;20497;-67
2023/12/11 11:22:44;;;;;;;1.52;0.40;;;10.20;99.90;;;;;;4912255;29;20044;-67
2023/12/11 11:25:34;;;;;;;0.95;0.43;;;10.20;99.90;;;;;;4894723;29;20044;-67
2023/12/11 11:28:26;;;;;;;0.43;0.35;;;10.10;99.90;;;;;;4912015;29;20066;-68
2023/12/11 11:30:58;;;;;;;1.63;0.50;;;10.00;99.90;;;;;;4897494;29;20139;-68
2023/12/11 11:33:46;;;;;;;0.65;0.50;;;9.90;99.90;;;;;;4912084;29;20040;-68
2023/12/11 11:36:20;;;;;;;2.57;1.30;;;9.90;99.90;;;;;;4895546;29;20040;-67
2023/12/11 11:38:57;;;;;;;1.13;0.60;;;9.80;99.90;;;;;;4896771;29;20537;-67
2023/12/11 11:41:29;;;;;;;1.10;0.60;;;9.70;99.90;;;;;;4911888;29;20040;-67
2023/12/11 11:44:05;;;;;;;1.48;0.70;;;9.70;99.90;;;;;;4910927;29;20056;-67
2023/12/11 11:46:54;;;;;;;1.00;0.68;;;9.60;99.90;;;;;;4910276;29;20119;-67
2023/12/11 11:49:34;;;;;;;1.40;0.50;;;9.60;99.90;;;;;;4911226;29;20048;-67
2023/12/11 11:52:05;;;;;;;1.15;0.63;;;9.60;99.90;;;;;;4907874;29;20751;-68
2023/12/11 11:54:39;;;;;;;1.20;0.50;;;9.60;99.90;;;;;;4911596;29;20036;-67
2023/12/11 11:57:10;;;;;;;0.70;0.43;;;9.60;99.90;;;;;;4907555;29;20064;-68
2023/12/11 11:59:45;;;;;;;0.93;0.40;;;9.60;99.90;;;;;;4907269;29;20079;-67
2023/12/11 12:02:24;;;;;;;0.80;0.40;;;9.70;99.90;;;;;;4912869;29;20040;-67
2023/12/11 12:05:08;;;;;;;1.27;0.50;;;9.70;99.90;;;;;;4909105;29;20048;-67
2023/12/11 12:07:41;;;;;;;1.00;0.40;;;9.80;99.90;;;;;;4911091;29;20139;-67
2023/12/11 12:10:12;;;;;;;1.52;0.40;;;9.80;99.90;;;;;;4910193;29;20060;-67
2023/12/11 12:12:50;;;;;;;0.70;0.50;;;9.80;99.90;;;;;;4910054;29;20050;-67
2023/12/11 12:15:22;;;;;;;2.95;0.50;;;9.80;99.90;;;;;;4911780;29;20140;-67
2023/12/11 12:17:50;;;;;;;1.58;0.40;;;9.80;99.90;;;;;;4910493;29;20436;-68
2023/12/11 12:20:18;;;;;;;0.30;0.30;;;9.80;99.90;;;;;;4909106;29;20055;-68
2023/12/11 12:23:03;;;;;;;0.60;0.40;;;9.80;99.90;;;;;;4907019;29;20124;-68
2023/12/11 12:25:35;;;;;;;0.55;0.40;;;9.70;99.90;;;;;;4916793;29;20723;-68
2023/12/11 12:28:10;;;;;;;0.80;0.40;;;9.80;99.90;;;;;;4910989;29;20040;-67
2023/12/11 12:30:42;;;;;;;2.40;0.43;;;9.70;99.90;;;;;;4901048;29;20040;-67
2023/12/11 12:33:14;;;;;;;0.80;0.40;;;9.70;99.90;;;;;;4910142;29;20662;-67
2023/12/11 12:35:48;;;;;;;0.88;0.28;;;9.70;99.90;;;;;;4911950;29;20048;-68
2023/12/11 12:38:21;;;;;;;0.80;0.38;;;9.70;99.90;;;;;;4905458;29;20048;-67
2023/12/11 12:40:54;;;;;;;0.68;0.40;;;9.70;99.90;;;;;;4912300;29;20056;-68
2023/12/11 12:43:24;;;;;;;0.57;0.30;;;9.70;99.90;;;;;;4905513;29;20131;-65
2023/12/11 12:46:00;;;;;;;0.98;0.38;;;9.70;99.90;;;;;;4910126;29;20058;-69
2023/12/11 12:48:32;;;;;;;0.60;0.30;;;9.70;99.90;;;;;;4911042;29;20064;-67
2023/12/11 12:51:09;;;;;;;0.28;0.28;;;9.70;99.90;;;;;;4909964;29;20048;-68
2023/12/11 12:53:54;;;;;;;2.83;0.38;;;9.60;99.90;;;;;;4910005;29;20044;-67
2023/12/11 12:56:22;;;;;;;0.25;0.20;;;9.70;99.90;;;;;;4906269;29;20537;-67
2023/12/11 12:58:49;;;;;;;0.40;0.30;;;9.70;99.90;;;;;;4910633;29;20048;-67
2023/12/11 13:01:21;;;;;;;1.27;0.50;;;9.70;99.90;;;;;;4912740;29;20146;-67
2023/12/11 13:03:59;;;;;;;1.38;0.30;;;9.70;99.90;;;;;;4922306;29;20135;-67
2023/12/11 13:06:32;;;;;;;0.73;0.35;;;9.70;99.90;;;;;;4913087;29;20044;-67
2023/12/11 13:09:05;;;;;;;1.08;0.40;;;9.70;99.90;;;;;;4908618;29;20047;-69
2023/12/11 13:11:45;;;;;;;0.38;0.30;;;9.80;99.90;;;;;;4916655;29;20036;-67
2023/12/11 13:14:13;;;;;;;0.93;0.38;;;9.80;99.90;;;;;;4913201;29;20604;-68
2023/12/11 13:16:46;;;;;;;0.57;0.30;;;9.80;99.90;;;;;;4905903;29;20052;-67
2023/12/11 13:19:18;;;;;;;0.52;0.30;;;9.70;99.90;;;;;;4908412;29;20135;-67
2023/12/11 13:21:51;;;;;;;1.73;0.32;;;9.70;99.90;;;;;;4909008;29;20654;-68